sensor_id;sensor_type;location;lat;lon;timestamp;temperature;humidity
68385;DHT22;55336;43.062;25.626;2022-10-17T00:01:40;1.80;99.90
68385;DHT22;55336;43.062;25.626;2022-10-17T00:04:06;1.70;99.90
68385;DHT22;55336;43.062;25.626;2022-10-17T00:06:32;1.70;99.90
68385;DHT22;55336;43.062;25.626;2022-10-17T00:08:58;1.70;99.90
68385;DHT22;55336;43.062;25.626;2022-10-17T00:11:24;1.70;99.90
68385;DHT22;55336;43.062;25.626;2022-10-17T00:13:52;1.70;99.90
68385;DHT22;55336;43.062;25.626;2022-10-17T00:16:27;1.60;99.90
68385;DHT22;55336;43.062;25.626;2022-10-17T00:18:54;1.60;99.90
68385;DHT22;55336;43.062;25.626;2022-10-17T00:21:20;1.60;99.90
68385;DHT22;55336;43.062;25.626;2022-10-17T00:23:47;1.60;99.90
68385;DHT22;55336;43.062;25.626;2022-10-17T00:26:13;1.50;99.90
68385;DHT22;55336;43.062;25.626;2022-10-17T00:28:40;1.50;99.90
68385;DHT22;55336;43.062;25.626;2022-10-17T00:31:06;1.50;99.90
68385;DHT22;55336;43.062;25.626;2022-10-17T00:33:33;1.50;99.90
68385;DHT22;55336;43.062;25.626;2022-10-17T00:36:14;1.50;99.90
68385;DHT22;55336;43.062;25.626;2022-10-17T00:38:42;1.60;99.90
68385;DHT22;55336;43.062;25.626;2022-10-17T00:41:11;1.50;99.90
68385;DHT22;55336;43.062;25.626;2022-10-17T00:44:01;1.40;99.90
68385;DHT22;55336;43.062;25.626;2022-10-17T00:46:35;1.40;99.90
68385;DHT22;55336;43.062;25.626;2022-10-17T00:49:09;1.40;99.90
68385;DHT22;55336;43.062;25.626;2022-10-17T00:51:48;1.40;99.90
68385;DHT22;55336;43.062;25.626;2022-10-17T00:54:18;1.50;99.90
68385;DHT22;55336;43.062;25.626;2022-10-17T00:56:46;1.50;99.90
68385;DHT22;55336;43.062;25.626;2022-10-17T00:59:13;1.40;99.90
68385;DHT22;55336;43.062;25.626;2022-10-17T01:01:42;1.40;99.90
68385;DHT22;55336;43.062;25.626;2022-10-17T01:04:10;1.40;99.90
68385;DHT22;55336;43.062;25.626;2022-10-17T01:06:36;1.30;99.90
68385;DHT22;55336;43.062;25.626;2022-10-17T01:09:02;1.40;99.90
68385;DHT22;55336;43.062;25.626;2022-10-17T01:11:37;1.30;99.90
68385;DHT22;55336;43.062;25.626;2022-10-17T01:16:45;1.30;99.90
68385;DHT22;55336;43.062;25.626;2022-10-17T01:28:14;1.10;99.90
68385;DHT22;55336;43.062;25.626;2022-10-17T01:30:53;1.00;99.90
68385;DHT22;55336;43.062;25.626;2022-10-17T01:33:29;1.00;99.90
68385;DHT22;55336;43.062;25.626;2022-10-17T01:44:52;0.90;99.90
68385;DHT22;55336;43.062;25.626;2022-10-17T01:47:24;0.90;99.90
68385;DHT22;55336;43.062;25.626;2022-10-17T01:49:54;0.90;99.90
68385;DHT22;55336;43.062;25.626;2022-10-17T01:52:25;0.90;99.90
68385;DHT22;55336;43.062;25.626;2022-10-17T01:55:03;0.80;99.90
68385;DHT22;55336;43.062;25.626;2022-10-17T01:57:38;0.90;99.90
68385;DHT22;55336;43.062;25.626;2022-10-17T02:00:08;0.80;99.90
68385;DHT22;55336;43.062;25.626;2022-10-17T02:02:36;0.80;99.90
68385;DHT22;55336;43.062;25.626;2022-10-17T02:05:03;0.90;99.90
68385;DHT22;55336;43.062;25.626;2022-10-17T02:07:29;0.80;99.90
68385;DHT22;55336;43.062;25.626;2022-10-17T02:09:55;0.80;99.90
68385;DHT22;55336;43.062;25.626;2022-10-17T02:12:30;0.80;99.90
68385;DHT22;55336;43.062;25.626;2022-10-17T02:22:46;0.70;99.90
68385;DHT22;55336;43.062;25.626;2022-10-17T02:30:25;0.70;99.90
68385;DHT22;55336;43.062;25.626;2022-10-17T02:36:03;0.70;99.90
68385;DHT22;55336;43.062;25.626;2022-10-17T02:38:31;0.60;99.90
68385;DHT22;55336;43.062;25.626;2022-10-17T02:40:59;0.60;99.90
68385;DHT22;55336;43.062;25.626;2022-10-17T02:43:25;0.60;99.90
68385;DHT22;55336;43.062;25.626;2022-10-17T02:45:52;0.60;99.90
68385;DHT22;55336;43.062;25.626;2022-10-17T02:48:42;0.70;99.90
68385;DHT22;55336;43.062;25.626;2022-10-17T02:53:52;0.60;99.90
68385;DHT22;55336;43.062;25.626;2022-10-17T02:56:20;0.60;99.90
68385;DHT22;55336;43.062;25.626;2022-10-17T02:58:50;0.50;99.90
68385;DHT22;55336;43.062;25.626;2022-10-17T03:01:18;0.40;99.90
68385;DHT22;55336;43.062;25.626;2022-10-17T03:03:44;0.40;99.90
68385;DHT22;55336;43.062;25.626;2022-10-17T03:06:10;0.40;99.90
68385;DHT22;55336;43.062;25.626;2022-10-17T03:08:36;0.30;99.90
68385;DHT22;55336;43.062;25.626;2022-10-17T03:11:02;0.30;99.90
68385;DHT22;55336;43.062;25.626;2022-10-17T03:13:28;0.30;99.90
68385;DHT22;55336;43.062;25.626;2022-10-17T03:15:57;0.30;99.90
68385;DHT22;55336;43.062;25.626;2022-10-17T03:18:23;0.20;99.90
68385;DHT22;55336;43.062;25.626;2022-10-17T03:20:49;0.20;99.90
68385;DHT22;55336;43.062;25.626;2022-10-17T03:23:15;0.10;99.90
68385;DHT22;55336;43.062;25.626;2022-10-17T03:25:41;0.20;99.90
68385;DHT22;55336;43.062;25.626;2022-10-17T03:28:08;0.10;99.90
68385;DHT22;55336;43.062;25.626;2022-10-17T03:30:37;0.10;99.90
68385;DHT22;55336;43.062;25.626;2022-10-17T03:33:03;0.10;99.90
68385;DHT22;55336;43.062;25.626;2022-10-17T03:35:29;0.20;99.90
68385;DHT22;55336;43.062;25.626;2022-10-17T03:37:55;0.20;99.90
68385;DHT22;55336;43.062;25.626;2022-10-17T03:40:21;0.20;99.90
68385;DHT22;55336;43.062;25.626;2022-10-17T03:42:48;0.10;99.90
68385;DHT22;55336;43.062;25.626;2022-10-17T03:45:14;0.10;99.90
68385;DHT22;55336;43.062;25.626;2022-10-17T03:47:41;0.00;99.90
68385;DHT22;55336;43.062;25.626;2022-10-17T03:50:07;0.00;99.90
68385;DHT22;55336;43.062;25.626;2022-10-17T03:52:33;0.00;99.90
68385;DHT22;55336;43.062;25.626;2022-10-17T03:55:00;0.00;99.90
68385;DHT22;55336;43.062;25.626;2022-10-17T03:57:26;-0.10;99.90
68385;DHT22;55336;43.062;25.626;2022-10-17T03:59:52;-0.10;99.90
68385;DHT22;55336;43.062;25.626;2022-10-17T04:02:18;-0.10;99.90
68385;DHT22;55336;43.062;25.626;2022-10-17T04:04:44;0.00;99.90
68385;DHT22;55336;43.062;25.626;2022-10-17T04:07:10;-0.10;99.90
68385;DHT22;55336;43.062;25.626;2022-10-17T04:09:36;-0.10;99.90
68385;DHT22;55336;43.062;25.626;2022-10-17T04:12:02;-0.10;99.90
68385;DHT22;55336;43.062;25.626;2022-10-17T04:14:28;-0.10;99.90
68385;DHT22;55336;43.062;25.626;2022-10-17T04:16:54;-0.10;99.90
68385;DHT22;55336;43.062;25.626;2022-10-17T04:19:20;-0.10;99.90
68385;DHT22;55336;43.062;25.626;2022-10-17T04:21:46;-0.10;99.90
68385;DHT22;55336;43.062;25.626;2022-10-17T04:24:12;-0.20;99.90
68385;DHT22;55336;43.062;25.626;2022-10-17T04:26:38;-0.20;99.90
68385;DHT22;55336;43.062;25.626;2022-10-17T04:29:04;-0.20;99.90
68385;DHT22;55336;43.062;25.626;2022-10-17T04:31:30;-0.20;99.90
68385;DHT22;55336;43.062;25.626;2022-10-17T04:33:56;-0.20;99.90
68385;DHT22;55336;43.062;25.626;2022-10-17T04:36:22;-0.20;99.90
68385;DHT22;55336;43.062;25.626;2022-10-17T04:38:48;-0.20;99.90
68385;DHT22;55336;43.062;25.626;2022-10-17T04:41:16;-0.10;99.90
68385;DHT22;55336;43.062;25.626;2022-10-17T04:43:42;-0.20;99.90
68385;DHT22;55336;43.062;25.626;2022-10-17T04:46:13;-0.10;99.90
68385;DHT22;55336;43.062;25.626;2022-10-17T04:48:40;-0.10;99.90
68385;DHT22;55336;43.062;25.626;2022-10-17T04:51:09;-0.10;99.90
68385;DHT22;55336;43.062;25.626;2022-10-17T04:53:37;-0.10;99.90
68385;DHT22;55336;43.062;25.626;2022-10-17T04:56:17;-0.10;99.90
68385;DHT22;55336;43.062;25.626;2022-10-17T04:58:45;0.00;99.90
68385;DHT22;55336;43.062;25.626;2022-10-17T05:01:13;0.00;99.90
68385;DHT22;55336;43.062;25.626;2022-10-17T05:03:40;0.10;99.90
68385;DHT22;55336;43.062;25.626;2022-10-17T05:06:10;0.10;99.90
68385;DHT22;55336;43.062;25.626;2022-10-17T05:08:36;0.10;99.90
68385;DHT22;55336;43.062;25.626;2022-10-17T05:11:02;0.20;99.90
68385;DHT22;55336;43.062;25.626;2022-10-17T05:13:29;0.30;99.90
68385;DHT22;55336;43.062;25.626;2022-10-17T05:15:59;0.30;99.90
68385;DHT22;55336;43.062;25.626;2022-10-17T05:18:26;0.10;99.90
68385;DHT22;55336;43.062;25.626;2022-10-17T05:20:52;0.50;99.90
68385;DHT22;55336;43.062;25.626;2022-10-17T05:23:18;0.50;99.90
68385;DHT22;55336;43.062;25.626;2022-10-17T05:25:44;0.60;99.90
68385;DHT22;55336;43.062;25.626;2022-10-17T05:28:10;0.70;99.90
68385;DHT22;55336;43.062;25.626;2022-10-17T05:30:36;0.80;99.90
68385;DHT22;55336;43.062;25.626;2022-10-17T05:33:02;0.90;99.90
68385;DHT22;55336;43.062;25.626;2022-10-17T05:35:28;1.00;99.90
68385;DHT22;55336;43.062;25.626;2022-10-17T05:37:54;1.00;99.90
68385;DHT22;55336;43.062;25.626;2022-10-17T05:40:20;1.20;99.90
68385;DHT22;55336;43.062;25.626;2022-10-17T05:42:47;1.30;99.90
68385;DHT22;55336;43.062;25.626;2022-10-17T05:45:14;1.60;99.90
68385;DHT22;55336;43.062;25.626;2022-10-17T05:47:40;1.80;99.90
68385;DHT22;55336;43.062;25.626;2022-10-17T05:50:07;2.10;99.90
68385;DHT22;55336;43.062;25.626;2022-10-17T05:52:33;2.40;99.90
68385;DHT22;55336;43.062;25.626;2022-10-17T05:54:59;2.80;99.90
68385;DHT22;55336;43.062;25.626;2022-10-17T05:57:27;3.30;99.90
68385;DHT22;55336;43.062;25.626;2022-10-17T05:59:53;3.70;99.90
68385;DHT22;55336;43.062;25.626;2022-10-17T06:02:19;4.20;99.90
68385;DHT22;55336;43.062;25.626;2022-10-17T06:04:45;4.50;99.90
68385;DHT22;55336;43.062;25.626;2022-10-17T06:07:13;4.90;99.90
68385;DHT22;55336;43.062;25.626;2022-10-17T06:09:40;5.40;99.90
68385;DHT22;55336;43.062;25.626;2022-10-17T06:12:06;5.10;99.90
68385;DHT22;55336;43.062;25.626;2022-10-17T06:14:32;6.00;99.90
68385;DHT22;55336;43.062;25.626;2022-10-17T06:16:58;6.40;99.90
68385;DHT22;55336;43.062;25.626;2022-10-17T06:19:24;6.80;99.90
68385;DHT22;55336;43.062;25.626;2022-10-17T06:21:50;7.10;99.90
68385;DHT22;55336;43.062;25.626;2022-10-17T06:24:16;7.50;99.90
68385;DHT22;55336;43.062;25.626;2022-10-17T06:26:42;7.70;99.90
68385;DHT22;55336;43.062;25.626;2022-10-17T06:29:09;8.10;99.90
68385;DHT22;55336;43.062;25.626;2022-10-17T06:31:35;8.40;99.90
68385;DHT22;55336;43.062;25.626;2022-10-17T06:34:01;8.70;99.90
68385;DHT22;55336;43.062;25.626;2022-10-17T06:36:27;9.00;99.90
68385;DHT22;55336;43.062;25.626;2022-10-17T06:38:53;9.10;99.90
68385;DHT22;55336;43.062;25.626;2022-10-17T06:41:22;9.50;99.90
68385;DHT22;55336;43.062;25.626;2022-10-17T06:43:47;9.80;99.90
68385;DHT22;55336;43.062;25.626;2022-10-17T06:46:15;10.00;99.90
68385;DHT22;55336;43.062;25.626;2022-10-17T06:48:42;10.30;99.90
68385;DHT22;55336;43.062;25.626;2022-10-17T06:51:08;10.30;99.90
68385;DHT22;55336;43.062;25.626;2022-10-17T06:53:38;10.60;99.90
68385;DHT22;55336;43.062;25.626;2022-10-17T06:56:05;11.00;99.90
68385;DHT22;55336;43.062;25.626;2022-10-17T06:58:35;11.50;99.90
68385;DHT22;55336;43.062;25.626;2022-10-17T07:01:10;11.60;99.90
68385;DHT22;55336;43.062;25.626;2022-10-17T07:03:37;12.10;99.90
68385;DHT22;55336;43.062;25.626;2022-10-17T07:06:05;12.50;99.90
68385;DHT22;55336;43.062;25.626;2022-10-17T07:08:31;12.90;99.90
68385;DHT22;55336;43.062;25.626;2022-10-17T07:11:10;13.40;99.90
68385;DHT22;55336;43.062;25.626;2022-10-17T07:13:36;13.20;98.30
68385;DHT22;55336;43.062;25.626;2022-10-17T07:16:02;13.70;95.80
68385;DHT22;55336;43.062;25.626;2022-10-17T07:18:28;14.00;92.60
68385;DHT22;55336;43.062;25.626;2022-10-17T07:20:54;14.10;93.60
68385;DHT22;55336;43.062;25.626;2022-10-17T07:23:21;13.90;90.10
68385;DHT22;55336;43.062;25.626;2022-10-17T07:25:47;14.30;88.50
68385;DHT22;55336;43.062;25.626;2022-10-17T07:28:15;14.60;85.50
68385;DHT22;55336;43.062;25.626;2022-10-17T07:30:44;14.80;83.60
68385;DHT22;55336;43.062;25.626;2022-10-17T07:33:10;15.10;83.00
68385;DHT22;55336;43.062;25.626;2022-10-17T07:35:37;15.70;80.30
68385;DHT22;55336;43.062;25.626;2022-10-17T07:38:05;16.40;76.70
68385;DHT22;55336;43.062;25.626;2022-10-17T07:40:31;16.40;75.70
68385;DHT22;55336;43.062;25.626;2022-10-17T07:42:57;16.40;73.60
68385;DHT22;55336;43.062;25.626;2022-10-17T07:45:23;16.40;72.70
68385;DHT22;55336;43.062;25.626;2022-10-17T07:47:56;16.60;72.00
68385;DHT22;55336;43.062;25.626;2022-10-17T07:50:23;17.00;70.10
68385;DHT22;55336;43.062;25.626;2022-10-17T07:52:50;17.20;69.20
68385;DHT22;55336;43.062;25.626;2022-10-17T07:55:16;17.30;68.10
68385;DHT22;55336;43.062;25.626;2022-10-17T07:57:41;16.90;67.40
68385;DHT22;55336;43.062;25.626;2022-10-17T08:00:10;16.90;67.70
68385;DHT22;55336;43.062;25.626;2022-10-17T08:02:36;17.30;67.00
68385;DHT22;55336;43.062;25.626;2022-10-17T08:05:02;17.40;65.50
68385;DHT22;55336;43.062;25.626;2022-10-17T08:07:29;17.60;64.50
68385;DHT22;55336;43.062;25.626;2022-10-17T08:09:55;17.90;63.90
68385;DHT22;55336;43.062;25.626;2022-10-17T08:12:21;17.70;62.70
68385;DHT22;55336;43.062;25.626;2022-10-17T08:14:46;18.30;61.50
68385;DHT22;55336;43.062;25.626;2022-10-17T08:17:12;18.90;59.40
68385;DHT22;55336;43.062;25.626;2022-10-17T08:19:38;19.10;57.60
68385;DHT22;55336;43.062;25.626;2022-10-17T08:22:05;19.40;56.60
68385;DHT22;55336;43.062;25.626;2022-10-17T08:24:31;19.60;55.90
68385;DHT22;55336;43.062;25.626;2022-10-17T08:26:56;19.60;55.80
68385;DHT22;55336;43.062;25.626;2022-10-17T08:29:23;19.20;55.90
68385;DHT22;55336;43.062;25.626;2022-10-17T08:31:49;19.40;55.90
68385;DHT22;55336;43.062;25.626;2022-10-17T08:34:14;19.90;55.80
68385;DHT22;55336;43.062;25.626;2022-10-17T08:36:41;20.20;53.70
68385;DHT22;55336;43.062;25.626;2022-10-17T08:39:07;19.90;51.20
68385;DHT22;55336;43.062;25.626;2022-10-17T08:42:02;20.10;47.70
68385;DHT22;55336;43.062;25.626;2022-10-17T08:44:52;20.40;46.00
68385;DHT22;55336;43.062;25.626;2022-10-17T08:47:34;20.80;47.90
68385;DHT22;55336;43.062;25.626;2022-10-17T08:50:04;21.20;47.00
68385;DHT22;55336;43.062;25.626;2022-10-17T08:55:18;21.00;45.70
68385;DHT22;55336;43.062;25.626;2022-10-17T08:57:49;21.50;44.80
68385;DHT22;55336;43.062;25.626;2022-10-17T09:00:20;21.80;44.30
68385;DHT22;55336;43.062;25.626;2022-10-17T09:05:49;21.50;44.00
68385;DHT22;55336;43.062;25.626;2022-10-17T09:14:09;21.30;45.60
68385;DHT22;55336;43.062;25.626;2022-10-17T09:17:27;21.00;46.90
68385;DHT22;55336;43.062;25.626;2022-10-17T09:19:35;20.90;47.80
68385;DHT22;55336;43.062;25.626;2022-10-17T09:22:12;20.80;46.80
68385;DHT22;55336;43.062;25.626;2022-10-17T09:27:17;21.70;45.20
68385;DHT22;55336;43.062;25.626;2022-10-17T09:29:45;21.10;45.80
68385;DHT22;55336;43.062;25.626;2022-10-17T09:32:20;21.00;46.70
68385;DHT22;55336;43.062;25.626;2022-10-17T09:34:47;21.40;46.70
68385;DHT22;55336;43.062;25.626;2022-10-17T09:37:15;20.70;48.30
68385;DHT22;55336;43.062;25.626;2022-10-17T09:39:44;21.10;46.90
68385;DHT22;55336;43.062;25.626;2022-10-17T09:42:16;21.60;46.10
68385;DHT22;55336;43.062;25.626;2022-10-17T09:45:15;21.40;47.20
68385;DHT22;55336;43.062;25.626;2022-10-17T09:47:53;21.70;46.60
68385;DHT22;55336;43.062;25.626;2022-10-17T09:50:31;22.20;45.60
68385;DHT22;55336;43.062;25.626;2022-10-17T09:53:15;22.60;44.60
68385;DHT22;55336;43.062;25.626;2022-10-17T09:55:46;22.50;43.80
68385;DHT22;55336;43.062;25.626;2022-10-17T09:58:13;22.00;46.90
68385;DHT22;55336;43.062;25.626;2022-10-17T10:00:44;22.10;45.20
68385;DHT22;55336;43.062;25.626;2022-10-17T10:08:34;23.10;43.70
68385;DHT22;55336;43.062;25.626;2022-10-17T10:11:04;23.10;43.20
68385;DHT22;55336;43.062;25.626;2022-10-17T10:13:32;22.70;43.10
68385;DHT22;55336;43.062;25.626;2022-10-17T10:16:22;22.80;43.40
68385;DHT22;55336;43.062;25.626;2022-10-17T10:18:57;23.20;42.80
68385;DHT22;55336;43.062;25.626;2022-10-17T10:21:25;23.00;43.80
68385;DHT22;55336;43.062;25.626;2022-10-17T10:24:05;23.80;42.20
68385;DHT22;55336;43.062;25.626;2022-10-17T10:26:47;24.20;41.00
68385;DHT22;55336;43.062;25.626;2022-10-17T10:32:24;24.00;41.00
68385;DHT22;55336;43.062;25.626;2022-10-17T10:39:55;23.70;40.40
68385;DHT22;55336;43.062;25.626;2022-10-17T10:42:36;23.50;41.60
68385;DHT22;55336;43.062;25.626;2022-10-17T10:45:17;23.70;42.10
68385;DHT22;55336;43.062;25.626;2022-10-17T10:48:02;23.20;43.40
68385;DHT22;55336;43.062;25.626;2022-10-17T10:50:35;22.90;42.20
68385;DHT22;55336;43.062;25.626;2022-10-17T10:56:05;23.20;42.90
68385;DHT22;55336;43.062;25.626;2022-10-17T10:58:41;23.70;42.10
68385;DHT22;55336;43.062;25.626;2022-10-17T11:04:42;23.60;42.20
68385;DHT22;55336;43.062;25.626;2022-10-17T11:11:04;23.30;41.80
68385;DHT22;55336;43.062;25.626;2022-10-17T11:13:40;23.00;42.90
68385;DHT22;55336;43.062;25.626;2022-10-17T11:22:07;23.70;42.40
68385;DHT22;55336;43.062;25.626;2022-10-17T11:27:28;23.40;42.70
68385;DHT22;55336;43.062;25.626;2022-10-17T11:29:55;22.60;42.30
68385;DHT22;55336;43.062;25.626;2022-10-17T11:32:30;22.60;43.10
68385;DHT22;55336;43.062;25.626;2022-10-17T11:35:12;22.90;42.60
68385;DHT22;55336;43.062;25.626;2022-10-17T11:37:45;23.10;42.30
68385;DHT22;55336;43.062;25.626;2022-10-17T11:40:20;23.20;41.10
68385;DHT22;55336;43.062;25.626;2022-10-17T11:43:04;21.10;45.20
68385;DHT22;55336;43.062;25.626;2022-10-17T11:45:39;22.60;43.80
68385;DHT22;55336;43.062;25.626;2022-10-17T11:48:13;23.30;43.10
68385;DHT22;55336;43.062;25.626;2022-10-17T11:50:44;23.00;42.40
68385;DHT22;55336;43.062;25.626;2022-10-17T11:53:14;22.70;43.20
68385;DHT22;55336;43.062;25.626;2022-10-17T11:55:44;22.60;42.30
68385;DHT22;55336;43.062;25.626;2022-10-17T12:01:32;23.20;42.20
68385;DHT22;55336;43.062;25.626;2022-10-17T12:07:25;23.00;41.00
68385;DHT22;55336;43.062;25.626;2022-10-17T12:10:18;23.10;41.60
68385;DHT22;55336;43.062;25.626;2022-10-17T12:12:54;22.90;42.60
68385;DHT22;55336;43.062;25.626;2022-10-17T12:17:58;22.80;40.90
68385;DHT22;55336;43.062;25.626;2022-10-17T12:20:36;22.60;41.60
68385;DHT22;55336;43.062;25.626;2022-10-17T12:25:52;23.10;40.90
68385;DHT22;55336;43.062;25.626;2022-10-17T12:31:00;23.00;40.80
68385;DHT22;55336;43.062;25.626;2022-10-17T12:33:34;23.10;40.80
68385;DHT22;55336;43.062;25.626;2022-10-17T12:46:46;21.70;43.50
68385;DHT22;55336;43.062;25.626;2022-10-17T12:54:59;22.50;42.70
68385;DHT22;55336;43.062;25.626;2022-10-17T12:57:37;22.50;41.90
68385;DHT22;55336;43.062;25.626;2022-10-17T13:00:21;22.50;42.10
68385;DHT22;55336;43.062;25.626;2022-10-17T13:02:51;22.60;42.50
68385;DHT22;55336;43.062;25.626;2022-10-17T13:05:31;22.80;41.60
68385;DHT22;55336;43.062;25.626;2022-10-17T13:07:59;22.90;40.90
68385;DHT22;55336;43.062;25.626;2022-10-17T13:10:28;22.80;41.00
68385;DHT22;55336;43.062;25.626;2022-10-17T13:13:20;22.90;40.60
68385;DHT22;55336;43.062;25.626;2022-10-17T13:15:51;23.10;40.40
68385;DHT22;55336;43.062;25.626;2022-10-17T13:18:26;23.40;39.90
68385;DHT22;55336;43.062;25.626;2022-10-17T13:21:01;23.30;40.20
68385;DHT22;55336;43.062;25.626;2022-10-17T13:23:35;23.30;39.90
68385;DHT22;55336;43.062;25.626;2022-10-17T13:26:24;23.70;39.60
68385;DHT22;55336;43.062;25.626;2022-10-17T13:29:09;23.90;38.40
68385;DHT22;55336;43.062;25.626;2022-10-17T13:31:37;23.80;38.20
68385;DHT22;55336;43.062;25.626;2022-10-17T13:34:14;23.80;38.50
68385;DHT22;55336;43.062;25.626;2022-10-17T13:36:41;24.10;37.80
68385;DHT22;55336;43.062;25.626;2022-10-17T13:39:09;23.80;38.20
68385;DHT22;55336;43.062;25.626;2022-10-17T13:41:51;23.70;38.50
68385;DHT22;55336;43.062;25.626;2022-10-17T13:44:27;24.00;38.90
68385;DHT22;55336;43.062;25.626;2022-10-17T13:46:53;23.90;38.30
68385;DHT22;55336;43.062;25.626;2022-10-17T13:49:25;23.80;38.80
68385;DHT22;55336;43.062;25.626;2022-10-17T13:51:53;23.20;39.00
68385;DHT22;55336;43.062;25.626;2022-10-17T13:54:41;23.60;39.60
68385;DHT22;55336;43.062;25.626;2022-10-17T13:57:21;23.80;39.80
68385;DHT22;55336;43.062;25.626;2022-10-17T14:02:22;24.40;38.80
68385;DHT22;55336;43.062;25.626;2022-10-17T14:07:54;24.20;38.30
68385;DHT22;55336;43.062;25.626;2022-10-17T14:10:26;23.90;39.00
68385;DHT22;55336;43.062;25.626;2022-10-17T14:12:55;23.90;40.60
68385;DHT22;55336;43.062;25.626;2022-10-17T14:15:30;23.70;38.60
68385;DHT22;55336;43.062;25.626;2022-10-17T14:18:01;23.70;40.00
68385;DHT22;55336;43.062;25.626;2022-10-17T14:20:28;23.60;39.90
68385;DHT22;55336;43.062;25.626;2022-10-17T14:22:57;23.40;41.50
68385;DHT22;55336;43.062;25.626;2022-10-17T14:25:38;23.10;42.10
68385;DHT22;55336;43.062;25.626;2022-10-17T14:30:42;22.70;39.90
68385;DHT22;55336;43.062;25.626;2022-10-17T14:33:14;22.90;40.40
68385;DHT22;55336;43.062;25.626;2022-10-17T14:35:56;22.90;40.50
68385;DHT22;55336;43.062;25.626;2022-10-17T14:38:23;22.90;40.80
68385;DHT22;55336;43.062;25.626;2022-10-17T14:40:58;22.70;40.70
68385;DHT22;55336;43.062;25.626;2022-10-17T14:43:27;22.70;41.20
68385;DHT22;55336;43.062;25.626;2022-10-17T14:45:57;22.50;42.00
68385;DHT22;55336;43.062;25.626;2022-10-17T14:48:27;22.50;42.20
68385;DHT22;55336;43.062;25.626;2022-10-17T14:51:11;22.30;42.40
68385;DHT22;55336;43.062;25.626;2022-10-17T14:53:40;20.80;46.70
68385;DHT22;55336;43.062;25.626;2022-10-17T14:56:24;20.40;47.10
68385;DHT22;55336;43.062;25.626;2022-10-17T14:58:51;19.80;49.00
68385;DHT22;55336;43.062;25.626;2022-10-17T15:01:17;19.10;50.70
68385;DHT22;55336;43.062;25.626;2022-10-17T15:03:44;18.50;52.40
68385;DHT22;55336;43.062;25.626;2022-10-17T15:06:19;17.90;55.70
68385;DHT22;55336;43.062;25.626;2022-10-17T15:08:45;17.30;57.40
68385;DHT22;55336;43.062;25.626;2022-10-17T15:11:14;16.90;60.00
68385;DHT22;55336;43.062;25.626;2022-10-17T15:13:40;16.40;59.20
68385;DHT22;55336;43.062;25.626;2022-10-17T15:18:47;15.70;65.30
68385;DHT22;55336;43.062;25.626;2022-10-17T15:21:17;15.30;67.00
68385;DHT22;55336;43.062;25.626;2022-10-17T15:23:43;15.00;68.10
68385;DHT22;55336;43.062;25.626;2022-10-17T15:26:19;14.70;70.40
68385;DHT22;55336;43.062;25.626;2022-10-17T15:28:46;14.40;72.20
68385;DHT22;55336;43.062;25.626;2022-10-17T15:31:18;14.10;73.60
68385;DHT22;55336;43.062;25.626;2022-10-17T15:33:45;13.70;76.40
68385;DHT22;55336;43.062;25.626;2022-10-17T15:36:35;13.40;78.20
68385;DHT22;55336;43.062;25.626;2022-10-17T15:39:02;13.10;82.40
68385;DHT22;55336;43.062;25.626;2022-10-17T15:41:30;12.80;86.00
68385;DHT22;55336;43.062;25.626;2022-10-17T15:43:56;12.60;86.50
68385;DHT22;55336;43.062;25.626;2022-10-17T15:46:23;12.40;87.20
68385;DHT22;55336;43.062;25.626;2022-10-17T15:48:51;12.30;91.40
68385;DHT22;55336;43.062;25.626;2022-10-17T15:51:17;12.00;94.70
68385;DHT22;55336;43.062;25.626;2022-10-17T15:53:44;11.90;99.90
68385;DHT22;55336;43.062;25.626;2022-10-17T15:56:22;11.60;99.90
68385;DHT22;55336;43.062;25.626;2022-10-17T15:58:50;11.40;99.90
68385;DHT22;55336;43.062;25.626;2022-10-17T16:01:24;11.30;99.90
68385;DHT22;55336;43.062;25.626;2022-10-17T16:03:51;11.10;99.90
68385;DHT22;55336;43.062;25.626;2022-10-17T16:06:17;10.90;99.90
68385;DHT22;55336;43.062;25.626;2022-10-17T16:08:45;10.80;99.90
68385;DHT22;55336;43.062;25.626;2022-10-17T16:11:38;10.60;99.90
68385;DHT22;55336;43.062;25.626;2022-10-17T16:14:08;10.50;99.90
68385;DHT22;55336;43.062;25.626;2022-10-17T16:16:35;10.30;99.90
68385;DHT22;55336;43.062;25.626;2022-10-17T16:19:01;10.20;99.90
68385;DHT22;55336;43.062;25.626;2022-10-17T16:21:29;10.00;99.90
68385;DHT22;55336;43.062;25.626;2022-10-17T16:23:56;9.90;99.90
68385;DHT22;55336;43.062;25.626;2022-10-17T16:26:22;9.80;99.90
68385;DHT22;55336;43.062;25.626;2022-10-17T16:28:48;9.70;99.90
68385;DHT22;55336;43.062;25.626;2022-10-17T16:31:22;9.50;99.90
68385;DHT22;55336;43.062;25.626;2022-10-17T16:33:50;9.50;99.90
68385;DHT22;55336;43.062;25.626;2022-10-17T16:36:16;9.30;99.90
68385;DHT22;55336;43.062;25.626;2022-10-17T16:38:42;9.30;99.90
68385;DHT22;55336;43.062;25.626;2022-10-17T16:41:30;9.20;99.90
68385;DHT22;55336;43.062;25.626;2022-10-17T16:44:05;9.10;99.90
68385;DHT22;55336;43.062;25.626;2022-10-17T16:46:32;9.00;99.90
68385;DHT22;55336;43.062;25.626;2022-10-17T16:48:58;8.90;99.90
68385;DHT22;55336;43.062;25.626;2022-10-17T16:51:24;8.80;99.90
68385;DHT22;55336;43.062;25.626;2022-10-17T16:53:51;8.70;99.90
68385;DHT22;55336;43.062;25.626;2022-10-17T16:56:22;8.60;99.90
68385;DHT22;55336;43.062;25.626;2022-10-17T16:58:49;8.50;99.90
68385;DHT22;55336;43.062;25.626;2022-10-17T17:01:18;8.40;99.90
68385;DHT22;55336;43.062;25.626;2022-10-17T17:03:46;8.30;99.90
68385;DHT22;55336;43.062;25.626;2022-10-17T17:06:20;8.20;99.90
68385;DHT22;55336;43.062;25.626;2022-10-17T17:08:47;8.10;99.90
68385;DHT22;55336;43.062;25.626;2022-10-17T17:11:15;8.00;99.90
68385;DHT22;55336;43.062;25.626;2022-10-17T17:13:41;8.00;99.90
68385;DHT22;55336;43.062;25.626;2022-10-17T17:16:08;7.90;99.90
68385;DHT22;55336;43.062;25.626;2022-10-17T17:18:34;7.80;99.90
68385;DHT22;55336;43.062;25.626;2022-10-17T17:21:02;7.70;99.90
68385;DHT22;55336;43.062;25.626;2022-10-17T17:23:29;7.70;99.90
68385;DHT22;55336;43.062;25.626;2022-10-17T17:26:00;7.60;99.90
68385;DHT22;55336;43.062;25.626;2022-10-17T17:28:26;7.60;99.90
68385;DHT22;55336;43.062;25.626;2022-10-17T17:30:53;7.50;99.90
68385;DHT22;55336;43.062;25.626;2022-10-17T17:33:20;7.40;99.90
68385;DHT22;55336;43.062;25.626;2022-10-17T17:35:46;7.30;99.90
68385;DHT22;55336;43.062;25.626;2022-10-17T17:38:12;7.20;99.90
68385;DHT22;55336;43.062;25.626;2022-10-17T17:40:45;7.20;99.90
68385;DHT22;55336;43.062;25.626;2022-10-17T17:43:12;7.10;99.90
68385;DHT22;55336;43.062;25.626;2022-10-17T17:45:38;7.00;99.90
68385;DHT22;55336;43.062;25.626;2022-10-17T17:48:04;6.90;99.90